createdAt,value
2018-01-27T00:02:01.215Z,10.82
2018-01-27T00:04:27.826Z,10.32
2018-01-27T00:06:54.533Z,12.37
2018-01-27T00:09:21.174Z,9.73
2018-01-27T00:11:47.745Z,10.18
2018-01-27T00:14:14.400Z,13.38
2018-01-27T00:16:41.741Z,10.43
2018-01-27T00:19:08.321Z,11.02
2018-01-27T00:21:34.914Z,12.40
2018-01-27T00:24:01.646Z,15.00
2018-01-27T00:26:29.766Z,12.00
2018-01-27T00:28:56.367Z,13.43
2018-01-27T00:31:23.746Z,17.50
2018-01-27T00:33:50.360Z,18.00
2018-01-27T00:36:17.744Z,20.17
2018-01-27T00:38:44.314Z,15.27
2018-01-27T00:41:10.943Z,17.77
2018-01-27T00:43:37.614Z,31.85
2018-01-27T00:46:04.227Z,16.90
2018-01-27T00:48:31.933Z,19.77
2018-01-27T00:50:59.247Z,17.27
2018-01-27T00:53:25.869Z,25.23
2018-01-27T00:55:52.456Z,16.98
2018-01-27T00:58:19.795Z,40.03
2018-01-27T01:00:47.131Z,12.93
2018-01-27T01:03:13.750Z,21.98
2018-01-27T01:05:40.390Z,16.92
2018-01-27T01:08:07.014Z,12.85
2018-01-27T01:10:33.632Z,12.50
2018-01-27T01:13:00.258Z,17.85
2018-01-27T01:15:27.546Z,13.00
2018-01-27T01:17:54.163Z,18.73
2018-01-27T01:20:20.738Z,12.73
2018-01-27T01:22:47.346Z,11.40
2018-01-27T01:25:13.962Z,15.52
2018-01-27T01:27:40.547Z,11.07
2018-01-27T01:30:07.296Z,12.55
2018-01-27T01:32:33.874Z,13.85
2018-01-27T01:35:00.473Z,11.77
2018-01-27T01:37:27.051Z,14.50
2018-01-27T01:39:53.730Z,9.70
2018-01-27T01:42:26.266Z,14.82
2018-01-27T01:44:52.846Z,11.52
2018-01-27T01:47:19.430Z,10.45
2018-01-27T01:49:46.022Z,11.15
2018-01-27T01:52:13.420Z,14.07
2018-01-27T01:54:40.781Z,11.98
2018-01-27T01:57:07.394Z,10.55
2018-01-27T01:59:34.746Z,10.50
2018-01-27T02:02:01.314Z,10.35
2018-01-27T02:04:27.983Z,9.77
2018-01-27T02:06:54.673Z,9.63
2018-01-27T02:09:21.443Z,9.65
2018-01-27T02:11:48.062Z,8.38
2018-01-27T02:14:14.634Z,9.10
2018-01-27T02:16:41.220Z,10.55
2018-01-27T02:19:07.798Z,6.90
2018-01-27T02:21:34.418Z,7.70
2018-01-27T02:24:01.112Z,8.23
2018-01-27T02:26:27.759Z,8.70
2018-01-27T02:28:54.378Z,10.18
2018-01-27T02:31:21.002Z,7.82
2018-01-27T02:33:47.581Z,9.20
2018-01-27T02:36:14.990Z,9.75
2018-01-27T02:38:41.594Z,7.50
2018-01-27T02:41:08.227Z,8.05
2018-01-27T02:43:34.940Z,8.60
2018-01-27T02:46:01.507Z,8.48
2018-01-27T02:48:28.113Z,9.10
2018-01-27T02:50:54.710Z,7.80
2018-01-27T02:53:21.398Z,8.48
2018-01-27T02:55:48.751Z,7.10
2018-01-27T02:58:16.067Z,7.20
2018-01-27T03:00:42.669Z,8.30
2018-01-27T03:03:09.266Z,9.85
2018-01-27T03:05:35.986Z,7.55
2018-01-27T03:08:02.574Z,8.60
2018-01-27T03:10:29.178Z,8.57
2018-01-27T03:12:55.753Z,8.13
2018-01-27T03:15:22.357Z,7.80
2018-01-27T03:17:48.985Z,9.57
2018-01-27T03:20:15.597Z,7.70
2018-01-27T03:22:42.193Z,6.87
2018-01-27T03:25:09.749Z,7.53
2018-01-27T03:27:36.367Z,7.25
2018-01-27T03:30:02.973Z,6.90
2018-01-27T03:32:29.541Z,6.40
2018-01-27T03:34:56.123Z,5.90
2018-01-27T03:37:22.689Z,6.35
2018-01-27T03:39:49.354Z,6.30
2018-01-27T03:42:15.959Z,7.95
2018-01-27T03:44:42.610Z,6.18
2018-01-27T03:47:09.236Z,5.68
2018-01-27T03:49:35.866Z,6.25
2018-01-27T03:52:02.451Z,6.03
2018-01-27T03:54:29.074Z,6.30
2018-01-27T03:56:55.708Z,5.60
2018-01-27T03:59:23.100Z,5.25
2018-01-27T04:01:49.697Z,5.68
2018-01-27T04:04:16.307Z,6.78
2018-01-27T04:06:42.951Z,5.75
2018-01-27T04:09:09.550Z,5.25
2018-01-27T04:11:36.142Z,5.60
2018-01-27T04:14:02.794Z,6.87
2018-01-27T04:16:29.325Z,6.20
2018-01-27T04:18:55.963Z,8.10
2018-01-27T04:21:22.641Z,8.57
2018-01-27T04:23:49.225Z,9.68
2018-01-27T04:26:15.852Z,9.45
2018-01-27T04:28:42.414Z,9.18
2018-01-27T04:31:09.034Z,8.90
2018-01-27T04:33:35.669Z,11.25
2018-01-27T04:36:02.265Z,10.02
2018-01-27T04:38:28.923Z,13.62
2018-01-27T04:40:55.491Z,11.60
2018-01-27T04:43:22.805Z,9.70
2018-01-27T04:45:49.454Z,10.43
2018-01-27T04:48:16.035Z,14.15
2018-01-27T04:50:43.365Z,13.35
2018-01-27T04:53:09.969Z,18.92
2018-01-27T04:55:36.583Z,17.52
2018-01-27T04:58:03.208Z,16.25
2018-01-27T05:00:29.754Z,28.10
2018-01-27T05:02:56.380Z,12.52
2018-01-27T05:05:23.072Z,17.52
2018-01-27T05:07:49.745Z,20.17
2018-01-27T05:10:17.071Z,23.58
2018-01-27T05:12:43.733Z,19.45
2018-01-27T05:15:11.053Z,18.62
2018-01-27T05:17:37.638Z,16.83
2018-01-27T05:20:05.002Z,20.40
2018-01-27T05:22:31.621Z,17.30
2018-01-27T05:24:58.338Z,20.85
2018-01-27T05:27:24.972Z,16.45
2018-01-27T05:29:51.550Z,18.60
2018-01-27T05:32:18.120Z,16.95
2018-01-27T05:34:44.858Z,16.15
2018-01-27T05:37:11.482Z,17.52
2018-01-27T05:39:38.059Z,17.15
2018-01-27T05:42:04.651Z,14.95
2018-01-27T05:44:31.245Z,17.95
2018-01-27T05:46:58.563Z,18.20
2018-01-27T05:49:25.142Z,16.37
2018-01-27T05:51:52.492Z,20.58
2018-01-27T05:54:19.802Z,15.25
2018-01-27T05:56:46.419Z,20.05
2018-01-27T05:59:13.062Z,17.65
2018-01-27T06:01:39.701Z,17.67
2018-01-27T06:04:06.263Z,19.75
2018-01-27T06:06:32.834Z,17.55
2018-01-27T06:09:00.198Z,15.88
2018-01-27T06:11:27.590Z,16.65
2018-01-27T06:13:54.194Z,17.20
2018-01-27T06:16:21.586Z,15.40
2018-01-27T06:18:48.210Z,14.35
2018-01-27T06:21:14.859Z,14.07
2018-01-27T06:23:41.586Z,16.50
2018-01-27T06:26:08.192Z,15.82
2018-01-27T06:28:34.782Z,16.55
2018-01-27T06:31:01.414Z,16.70
2018-01-27T06:33:27.986Z,14.65
2018-01-27T06:35:55.327Z,17.75
2018-01-27T06:38:21.894Z,16.17
2018-01-27T06:40:49.229Z,17.00
2018-01-27T06:43:16.574Z,16.12
2018-01-27T06:45:43.206Z,15.32
2018-01-27T06:48:09.822Z,17.75
2018-01-27T06:50:36.409Z,16.37
2018-01-27T06:53:03.759Z,17.83
2018-01-27T06:55:30.354Z,21.85
2018-01-27T06:57:56.962Z,16.52
2018-01-27T07:00:23.550Z,18.20
2018-01-27T07:02:50.146Z,18.10
2018-01-27T07:05:16.762Z,19.65
2018-01-27T07:07:44.196Z,19.02
2018-01-27T07:10:10.895Z,17.52
2018-01-27T07:12:37.495Z,17.62
2018-01-27T07:15:04.189Z,19.87
2018-01-27T07:17:30.889Z,20.50
2018-01-27T07:19:57.475Z,21.85
2018-01-27T07:22:24.075Z,23.55
2018-01-27T07:24:50.659Z,21.52
2018-01-27T07:27:18.062Z,21.15
2018-01-27T07:29:44.626Z,22.23
2018-01-27T07:32:11.224Z,23.48
2018-01-27T07:34:37.854Z,22.10
2018-01-27T07:37:04.506Z,24.83
2018-01-27T07:39:31.079Z,23.80
2018-01-27T07:41:57.674Z,22.10
2018-01-27T07:44:24.254Z,19.60
2018-01-27T07:46:50.975Z,24.23
2018-01-27T07:49:17.558Z,25.58
2018-01-27T07:51:44.228Z,25.75
2018-01-27T07:54:10.827Z,23.17
2018-01-27T07:56:38.194Z,28.58
2018-01-27T07:59:04.762Z,27.60
2018-01-27T08:01:31.402Z,23.17
2018-01-27T08:03:58.006Z,24.08
2018-01-27T08:06:24.739Z,25.45
2018-01-27T08:08:52.102Z,32.70
2018-01-27T08:11:18.722Z,29.23
2018-01-27T08:13:46.249Z,23.90
2018-01-27T08:16:12.955Z,26.08
2018-01-27T08:18:39.583Z,28.48
2018-01-27T08:21:06.182Z,26.83
2018-01-27T08:23:32.872Z,29.45
2018-01-27T08:25:59.493Z,29.70
2018-01-27T08:28:26.193Z,34.97
2018-01-27T08:30:52.826Z,25.30
2018-01-27T08:33:19.428Z,27.85
2018-01-27T08:35:46.016Z,26.77
2018-01-27T08:38:12.675Z,31.02
2018-01-27T08:40:39.274Z,26.45
2018-01-27T08:43:05.944Z,26.87
2018-01-27T08:45:33.253Z,25.15
2018-01-27T08:47:59.830Z,24.35
2018-01-27T08:50:27.179Z,26.50
2018-01-27T08:52:54.499Z,24.45
2018-01-27T08:55:21.168Z,24.35
2018-01-27T08:57:47.795Z,23.87
2018-01-27T09:00:14.398Z,22.35
2018-01-27T09:02:41.127Z,17.98
2018-01-27T09:05:07.722Z,20.40
2018-01-27T09:07:34.450Z,19.85
2018-01-27T09:10:01.011Z,22.05
2018-01-27T09:12:27.625Z,20.92
2018-01-27T09:14:54.934Z,23.12
2018-01-27T09:17:21.562Z,23.25
2018-01-27T09:19:48.173Z,19.85
2018-01-27T09:22:14.757Z,19.65
2018-01-27T09:24:41.351Z,22.95
2018-01-27T09:27:07.999Z,26.75
2018-01-27T09:29:34.648Z,25.88
2018-01-27T09:32:01.246Z,19.30
2018-01-27T09:34:27.882Z,20.30
2018-01-27T09:36:55.222Z,21.00
2018-01-27T09:39:21.906Z,19.35
2018-01-27T09:41:49.284Z,17.87
2018-01-27T09:44:15.899Z,17.35
2018-01-27T09:46:42.976Z,17.52
2018-01-27T09:49:09.605Z,17.45
2018-01-27T09:51:36.959Z,17.98
2018-01-27T09:54:03.614Z,16.95
2018-01-27T09:56:30.206Z,16.65
2018-01-27T09:58:57.830Z,15.90
2018-01-27T10:01:25.166Z,16.40
2018-01-27T10:03:51.819Z,17.00
2018-01-27T10:06:18.427Z,16.10
2018-01-27T10:08:45.117Z,14.32
2018-01-27T10:11:11.700Z,14.50
2018-01-27T10:13:38.337Z,14.65
2018-01-27T10:16:04.917Z,13.07
2018-01-27T10:18:31.516Z,13.70
2018-01-27T10:20:58.917Z,14.30
2018-01-27T10:23:26.287Z,14.48
2018-01-27T10:25:52.899Z,16.27
2018-01-27T10:28:20.297Z,15.38
2018-01-27T10:30:47.732Z,14.80
2018-01-27T10:33:14.351Z,15.25
2018-01-27T10:35:40.929Z,14.95
2018-01-27T10:38:07.630Z,14.63
2018-01-27T10:40:35.239Z,14.70
2018-01-27T10:43:01.852Z,12.70
2018-01-27T10:45:28.466Z,13.00
2018-01-27T10:47:55.850Z,13.25
2018-01-27T10:50:22.459Z,15.90
2018-01-27T10:52:49.908Z,17.48
2018-01-27T10:55:17.309Z,19.40
2018-01-27T10:57:43.898Z,18.25
2018-01-27T11:00:10.917Z,25.12
2018-01-27T11:02:38.280Z,26.67
2018-01-27T11:05:05.306Z,23.75
2018-01-27T11:07:31.906Z,24.50
2018-01-27T11:09:58.514Z,20.02
2018-01-27T11:12:25.110Z,17.65
2018-01-27T11:14:51.711Z,18.62
2018-01-27T11:17:18.290Z,17.25
2018-01-27T11:19:44.985Z,18.80
2018-01-27T11:22:17.491Z,17.05
2018-01-27T11:24:44.227Z,15.88
2018-01-27T11:27:10.854Z,16.30
2018-01-27T11:29:37.488Z,16.45
2018-01-27T11:32:04.121Z,17.30
2018-01-27T11:34:30.750Z,15.75
2018-01-27T11:36:58.050Z,15.07
2018-01-27T11:39:24.662Z,16.08
2018-01-27T11:41:51.291Z,14.50
2018-01-27T11:44:17.973Z,13.35
2018-01-27T11:46:44.623Z,14.75
2018-01-27T11:49:11.291Z,14.75
2018-01-27T11:51:38.598Z,13.68
2018-01-27T11:54:05.979Z,14.40
2018-01-27T11:56:32.929Z,14.10
2018-01-27T11:59:00.537Z,13.55
2018-01-27T12:01:27.124Z,14.65
2018-01-27T12:03:54.460Z,14.18
2018-01-27T12:06:21.126Z,14.20
2018-01-27T12:08:48.451Z,13.00
2018-01-27T12:11:15.106Z,15.00
2018-01-27T12:13:41.812Z,13.02
2018-01-27T12:16:08.412Z,13.95
2018-01-27T12:18:35.012Z,13.70
2018-01-27T12:21:01.669Z,16.52
2018-01-27T12:23:28.335Z,17.12
2018-01-27T12:25:54.902Z,14.15
2018-01-27T12:28:21.556Z,15.50
2018-01-27T12:30:48.170Z,14.10
2018-01-27T12:33:14.786Z,13.70
2018-01-27T12:35:41.425Z,14.87
2018-01-27T12:38:08.046Z,12.40
2018-01-27T12:40:34.706Z,13.48
2018-01-27T12:43:01.347Z,12.30
2018-01-27T12:45:27.967Z,12.85
2018-01-27T12:47:54.668Z,13.48
2018-01-27T12:50:21.326Z,13.75
2018-01-27T12:52:48.008Z,14.27
2018-01-27T12:55:14.619Z,15.23
2018-01-27T12:57:41.295Z,18.35
2018-01-27T13:00:07.934Z,15.50
2018-01-27T13:02:35.300Z,14.73
2018-01-27T13:05:02.739Z,15.15
2018-01-27T13:07:29.356Z,16.20
2018-01-27T13:09:56.097Z,13.30
2018-01-27T13:12:22.708Z,14.30
2018-01-27T13:14:49.379Z,12.55
2018-01-27T13:17:15.990Z,13.77
2018-01-27T13:19:42.614Z,15.55
2018-01-27T13:22:09.277Z,15.57
2018-01-27T13:24:35.927Z,15.40
2018-01-27T13:27:02.535Z,15.57
2018-01-27T13:29:29.132Z,14.35
2018-01-27T13:31:55.749Z,14.73
2018-01-27T13:34:22.397Z,15.55
2018-01-27T13:36:49.006Z,13.88
2018-01-27T13:39:15.609Z,15.82
2018-01-27T13:41:42.959Z,14.25
2018-01-27T13:44:10.363Z,13.95
2018-01-27T13:46:36.961Z,14.13
2018-01-27T13:49:04.473Z,13.60
2018-01-27T13:51:31.055Z,12.95
2018-01-27T13:53:58.426Z,13.02
2018-01-27T13:56:25.055Z,13.68
2018-01-27T13:58:51.719Z,13.55
2018-01-27T14:01:18.309Z,14.25
2018-01-27T14:03:45.709Z,15.35
2018-01-27T14:06:12.558Z,13.68
2018-01-27T14:08:39.158Z,13.90
2018-01-27T14:11:05.767Z,14.20
2018-01-27T14:13:32.452Z,17.20
2018-01-27T14:15:59.122Z,18.45
2018-01-27T14:18:25.707Z,16.08
2018-01-27T14:20:52.297Z,16.33
2018-01-27T14:23:18.870Z,16.10
2018-01-27T14:25:46.327Z,16.90
2018-01-27T14:28:12.960Z,16.98
2018-01-27T14:30:40.338Z,16.48
2018-01-27T14:33:07.025Z,16.60
2018-01-27T14:35:33.612Z,16.25
2018-01-27T14:38:00.215Z,16.42
2018-01-27T14:40:26.849Z,21.02
2018-01-27T14:42:53.455Z,16.87
2018-01-27T14:45:20.036Z,17.33
2018-01-27T14:47:47.375Z,15.23
2018-01-27T14:50:14.010Z,16.77
2018-01-27T14:52:40.750Z,17.60
2018-01-27T14:55:07.367Z,15.52
2018-01-27T14:57:34.000Z,16.20
2018-01-27T15:00:00.712Z,15.63
2018-01-27T15:02:27.375Z,14.43
2018-01-27T15:04:54.003Z,14.00
2018-01-27T15:07:20.659Z,14.40
2018-01-27T15:09:47.283Z,22.55
2018-01-27T15:12:13.894Z,20.25
2018-01-27T15:14:40.497Z,19.30
2018-01-27T15:17:07.077Z,17.60
2018-01-27T15:19:33.685Z,16.02
2018-01-27T15:22:00.276Z,21.08
2018-01-27T15:24:26.838Z,17.25
2018-01-27T15:26:53.498Z,22.23
2018-01-27T15:29:20.892Z,22.62
2018-01-27T15:31:47.470Z,19.67
2018-01-27T15:34:14.142Z,25.00
2018-01-27T15:36:40.743Z,17.98
2018-01-27T15:39:07.457Z,15.25
2018-01-27T15:41:34.066Z,15.70
2018-01-27T15:44:00.818Z,15.20
2018-01-27T15:46:27.485Z,15.68
2018-01-27T15:48:54.843Z,15.55
2018-01-27T15:51:21.418Z,15.85
2018-01-27T15:53:48.754Z,16.10
2018-01-27T15:56:16.109Z,15.20
2018-01-27T15:58:43.500Z,14.65
2018-01-27T16:01:10.160Z,14.65
2018-01-27T16:03:36.994Z,24.98
2018-01-27T16:06:03.623Z,18.73
2018-01-27T16:08:30.999Z,18.45
2018-01-27T16:10:57.608Z,15.30
2018-01-27T16:13:24.171Z,15.45
2018-01-27T16:15:50.798Z,15.05
2018-01-27T16:18:17.543Z,15.73
2018-01-27T16:20:44.269Z,17.83
2018-01-27T16:23:10.887Z,15.68
2018-01-27T16:25:37.735Z,18.02
2018-01-27T16:28:04.390Z,15.95
2018-01-27T16:30:30.955Z,17.00
2018-01-27T16:32:57.596Z,16.12
2018-01-27T16:35:24.237Z,19.42
2018-01-27T16:37:50.877Z,21.20
2018-01-27T16:40:17.491Z,19.52
2018-01-27T16:42:45.063Z,19.15
2018-01-27T16:45:11.736Z,21.35
2018-01-27T16:47:38.322Z,21.75
2018-01-27T16:50:05.030Z,20.17
2018-01-27T16:52:31.598Z,20.80
2018-01-27T16:54:58.186Z,17.80
2018-01-27T16:57:24.827Z,17.80
2018-01-27T16:59:51.466Z,19.25
2018-01-27T17:02:18.881Z,17.08
2018-01-27T17:04:46.282Z,20.15
2018-01-27T17:07:12.897Z,18.80
2018-01-27T17:09:40.210Z,23.85
2018-01-27T17:12:06.870Z,18.73
2018-01-27T17:14:33.462Z,20.75
2018-01-27T17:17:00.151Z,20.55
2018-01-27T17:19:26.742Z,20.20
2018-01-27T17:21:53.316Z,25.10
2018-01-27T17:24:19.961Z,23.50
2018-01-27T17:26:46.553Z,23.92
2018-01-27T17:29:13.122Z,21.58
2018-01-27T17:31:39.820Z,21.17
2018-01-27T17:34:06.442Z,21.55
2018-01-27T17:36:33.090Z,22.60
2018-01-27T17:38:59.695Z,24.37
2018-01-27T17:41:26.371Z,30.00
2018-01-27T17:43:52.969Z,34.42
2018-01-27T17:46:19.631Z,31.60
2018-01-27T17:48:46.299Z,28.60
2018-01-27T17:51:12.905Z,32.63
2018-01-27T17:53:39.547Z,27.33
2018-01-27T17:56:06.174Z,25.90
2018-01-27T17:58:32.840Z,25.27
2018-01-27T18:00:59.489Z,22.37
2018-01-27T18:03:26.062Z,20.60
2018-01-27T18:05:53.405Z,20.50
2018-01-27T18:08:20.191Z,23.05
2018-01-27T18:10:46.822Z,21.95
2018-01-27T18:13:13.460Z,20.08
2018-01-27T18:15:40.133Z,18.48
2018-01-27T18:18:06.757Z,19.27
2018-01-27T18:20:33.370Z,17.95
2018-01-27T18:23:00.712Z,20.67
2018-01-27T18:25:27.394Z,18.93
2018-01-27T18:27:54.037Z,18.85
2018-01-27T18:30:20.802Z,20.90
2018-01-27T18:32:47.510Z,18.85
2018-01-27T18:35:14.127Z,17.42
2018-01-27T18:37:40.720Z,20.85
2018-01-27T18:40:07.401Z,18.58
2018-01-27T18:42:34.070Z,21.52
2018-01-27T18:45:01.395Z,21.52
2018-01-27T18:47:28.262Z,20.35
2018-01-27T18:49:54.972Z,20.27
2018-01-27T18:52:21.561Z,20.37
2018-01-27T18:54:48.189Z,21.90
2018-01-27T18:57:14.792Z,21.87
2018-01-27T18:59:41.482Z,19.30
2018-01-27T19:02:08.080Z,24.33
2018-01-27T19:04:34.686Z,20.75
2018-01-27T19:07:02.110Z,21.58
2018-01-27T19:09:28.775Z,21.52
2018-01-27T19:11:56.091Z,21.00
2018-01-27T19:14:22.721Z,21.37
2018-01-27T19:16:49.328Z,19.73
2018-01-27T19:19:15.961Z,20.20
2018-01-27T19:21:42.656Z,19.52
2018-01-27T19:24:09.301Z,18.42
2018-01-27T19:26:36.014Z,19.70
2018-01-27T19:29:03.353Z,18.70
2018-01-27T19:31:29.993Z,19.73
2018-01-27T19:33:56.658Z,20.92
2018-01-27T19:36:23.257Z,19.70
2018-01-27T19:38:49.967Z,18.60
2018-01-27T19:41:16.614Z,20.23
2018-01-27T19:43:43.265Z,21.52
2018-01-27T19:46:09.907Z,19.83
2018-01-27T19:48:36.581Z,21.08
2018-01-27T19:51:03.196Z,20.48
2018-01-27T19:53:29.844Z,18.80
2018-01-27T19:55:56.516Z,19.95
2018-01-27T19:58:23.139Z,32.78
2018-01-27T20:00:49.812Z,26.40
2018-01-27T20:03:16.505Z,24.90
2018-01-27T20:05:44.114Z,21.85
2018-01-27T20:08:10.727Z,20.92
2018-01-27T20:10:38.153Z,25.40
2018-01-27T20:13:04.788Z,22.30
2018-01-27T20:15:31.632Z,36.88
2018-01-27T20:17:58.989Z,29.08
2018-01-27T20:20:25.629Z,20.70
2018-01-27T20:22:52.354Z,19.58
2018-01-27T20:25:19.067Z,27.75
2018-01-27T20:27:45.780Z,32.97
2018-01-27T20:30:13.264Z,25.52
2018-01-27T20:32:39.843Z,35.85
2018-01-27T20:35:06.452Z,24.75
2018-01-27T20:37:33.188Z,21.90
2018-01-27T20:39:59.981Z,24.58
2018-01-27T20:42:26.592Z,24.48
2018-01-27T20:44:53.224Z,19.87
2018-01-27T20:47:19.923Z,22.35
2018-01-27T20:49:46.637Z,20.60
2018-01-27T20:52:13.299Z,21.98
2018-01-27T20:54:39.959Z,20.58
2018-01-27T20:57:06.651Z,21.05
2018-01-27T20:59:33.912Z,20.45
2018-01-27T21:02:01.357Z,21.37
2018-01-27T21:04:28.791Z,22.13
2018-01-27T21:06:55.516Z,21.98
2018-01-27T21:09:23.075Z,23.65
2018-01-27T21:11:49.760Z,24.83
2018-01-27T21:14:17.099Z,25.37
2018-01-27T21:16:43.698Z,23.33
2018-01-27T21:19:10.350Z,24.73
2018-01-27T21:21:37.022Z,24.23
2018-01-27T21:24:03.754Z,24.20
2018-01-27T21:26:31.176Z,23.12
2018-01-27T21:28:57.836Z,22.42
2018-01-27T21:31:24.570Z,23.08
2018-01-27T21:33:51.268Z,23.65
2018-01-27T21:36:17.927Z,24.42
2018-01-27T21:38:44.842Z,23.80
2018-01-27T21:41:11.462Z,23.40
2018-01-27T21:43:38.094Z,22.08
2018-01-27T21:46:05.578Z,22.70
2018-01-27T21:48:32.435Z,24.80
2018-01-27T21:50:59.015Z,25.15
2018-01-27T21:53:25.627Z,26.40
2018-01-27T21:55:52.247Z,24.63
2018-01-27T21:58:19.827Z,26.92
2018-01-27T22:00:46.512Z,25.55
2018-01-27T22:03:13.169Z,26.20
2018-01-27T22:05:39.783Z,27.73
2018-01-27T22:08:06.466Z,26.50
2018-01-27T22:10:33.352Z,27.00
2018-01-27T22:12:59.970Z,28.27
2018-01-27T22:15:26.582Z,28.33
2018-01-27T22:17:53.202Z,29.98
2018-01-27T22:20:19.807Z,28.48
2018-01-27T22:22:46.487Z,29.00
2018-01-27T22:25:13.102Z,26.12
2018-01-27T22:27:39.722Z,29.10
2018-01-27T22:30:07.134Z,26.92
2018-01-27T22:32:33.767Z,30.08
2018-01-27T22:35:00.374Z,29.40
2018-01-27T22:37:26.942Z,30.33
2018-01-27T22:39:53.557Z,31.02
2018-01-27T22:42:20.174Z,28.02
2018-01-27T22:44:46.807Z,30.80
2018-01-27T22:47:14.118Z,29.55
2018-01-27T22:49:40.750Z,29.30
2018-01-27T22:52:07.375Z,30.15
2018-01-27T22:54:33.983Z,28.98
2018-01-27T22:57:00.582Z,30.75
2018-01-27T22:59:27.190Z,31.48
2018-01-27T23:01:53.879Z,30.40
2018-01-27T23:04:21.195Z,29.25
2018-01-27T23:06:47.887Z,30.62
2018-01-27T23:09:14.555Z,32.38
2018-01-27T23:11:41.113Z,29.67
2018-01-27T23:14:08.819Z,28.40
2018-01-27T23:16:35.422Z,28.30
2018-01-27T23:19:02.232Z,31.87
2018-01-27T23:21:28.882Z,30.35
2018-01-27T23:23:55.535Z,27.60
2018-01-27T23:26:22.163Z,30.75
2018-01-27T23:28:49.106Z,27.27
2018-01-27T23:31:15.710Z,27.98
2018-01-27T23:33:42.332Z,27.10
2018-01-27T23:36:08.952Z,29.42
2018-01-27T23:38:35.594Z,26.00
2018-01-27T23:41:02.947Z,26.73
2018-01-27T23:43:30.295Z,26.65
2018-01-27T23:45:57.723Z,24.80
2018-01-27T23:48:24.354Z,23.67
2018-01-27T23:50:50.938Z,27.33
2018-01-27T23:53:17.565Z,28.90
2018-01-27T23:55:44.942Z,29.50
2018-01-27T23:58:12.308Z,26.27
